createdAt,value
2019-02-21T00:01:33.222Z,65.95
2019-02-21T00:04:03.794Z,65.76
2019-02-21T00:06:35.816Z,65.96
2019-02-21T00:09:07.571Z,65.81
2019-02-21T00:11:38.900Z,65.89
2019-02-21T00:14:09.556Z,65.89
2019-02-21T00:16:40.537Z,65.78
2019-02-21T00:19:11.563Z,65.89
2019-02-21T00:21:43.496Z,65.80
2019-02-21T00:24:13.950Z,65.84
2019-02-21T00:26:44.454Z,65.80
2019-02-21T00:29:14.807Z,65.75
2019-02-21T00:31:45.331Z,65.68
2019-02-21T00:34:16.318Z,65.73
2019-02-21T00:36:47.294Z,65.63
2019-02-21T00:39:18.524Z,65.99
2019-02-21T00:41:49.617Z,66.15
2019-02-21T00:44:20.492Z,66.35
2019-02-21T00:46:51.681Z,66.33
2019-02-21T00:49:23.127Z,66.40
2019-02-21T00:51:54.511Z,66.44
2019-02-21T00:54:27.115Z,66.67
2019-02-21T00:56:59.700Z,67.00
2019-02-21T00:59:30.186Z,67.09
2019-02-21T01:02:00.733Z,67.03
2019-02-21T01:04:31.574Z,67.00
2019-02-21T01:07:02.558Z,67.01
2019-02-21T01:09:33.644Z,67.01
2019-02-21T01:12:05.743Z,67.04
2019-02-21T01:14:36.371Z,67.08
2019-02-21T01:17:06.955Z,67.19
2019-02-21T01:19:37.520Z,67.32
2019-02-21T01:22:08.262Z,67.41
2019-02-21T01:24:39.276Z,67.42
2019-02-21T01:27:09.628Z,67.40
2019-02-21T01:29:41.559Z,67.50
2019-02-21T01:32:12.027Z,67.42
2019-02-21T01:34:43.653Z,67.64
2019-02-21T01:37:14.203Z,67.45
2019-02-21T01:39:45.135Z,67.16
2019-02-21T01:42:15.503Z,67.18
2019-02-21T01:44:47.302Z,67.26
2019-02-21T01:47:17.761Z,67.62
2019-02-21T01:49:49.519Z,68.27
2019-02-21T01:52:20.309Z,68.13
2019-02-21T01:54:50.748Z,68.08
2019-02-21T01:57:21.691Z,68.06
2019-02-21T01:59:52.276Z,67.92
2019-02-21T02:02:24.004Z,68.02
2019-02-21T02:04:55.360Z,67.97
2019-02-21T02:07:27.344Z,67.88
2019-02-21T02:09:57.867Z,68.07
2019-02-21T02:12:28.438Z,68.15
2019-02-21T02:14:58.880Z,68.09
2019-02-21T02:17:29.300Z,68.08
2019-02-21T02:20:00.368Z,68.20
2019-02-21T02:22:32.494Z,68.18
2019-02-21T02:25:03.279Z,68.25
2019-02-21T02:27:36.063Z,68.29
2019-02-21T02:30:07.786Z,68.42
2019-02-21T02:32:38.776Z,68.31
2019-02-21T02:35:09.481Z,68.26
2019-02-21T02:37:40.087Z,68.21
2019-02-21T02:40:10.910Z,67.73
2019-02-21T02:42:41.792Z,67.59
2019-02-21T02:45:12.137Z,67.77
2019-02-21T02:47:42.695Z,67.72
2019-02-21T02:50:14.251Z,67.51
2019-02-21T02:52:47.140Z,67.66
2019-02-21T02:55:17.615Z,68.15
2019-02-21T02:57:49.013Z,68.27
2019-02-21T03:00:20.405Z,68.29
2019-02-21T03:02:51.611Z,68.32
2019-02-21T03:05:22.068Z,68.30
2019-02-21T03:07:52.461Z,68.16
2019-02-21T03:10:24.390Z,68.12
2019-02-21T03:12:55.047Z,68.15
2019-02-21T03:15:25.901Z,68.04
2019-02-21T03:17:57.014Z,67.95
2019-02-21T03:20:28.342Z,68.12
2019-02-21T03:23:00.615Z,68.12
2019-02-21T03:25:31.377Z,67.87
2019-02-21T03:28:02.253Z,67.76
2019-02-21T03:30:33.619Z,67.70
2019-02-21T03:33:04.158Z,67.65
2019-02-21T03:35:34.626Z,67.71
2019-02-21T03:38:05.782Z,67.79
2019-02-21T03:40:36.840Z,67.82
2019-02-21T03:43:07.775Z,67.98
2019-02-21T03:45:39.902Z,68.37
2019-02-21T03:48:12.427Z,68.64
2019-02-21T03:50:47.257Z,69.69
2019-02-21T03:53:17.885Z,70.13
2019-02-21T03:55:48.489Z,69.97
2019-02-21T03:58:20.421Z,69.66
2019-02-21T04:00:51.144Z,69.59
2019-02-21T04:03:22.188Z,69.65
2019-02-21T04:05:52.648Z,69.65
2019-02-21T04:08:24.977Z,69.61
2019-02-21T04:10:55.633Z,69.73
2019-02-21T04:13:26.811Z,69.84
2019-02-21T04:15:57.501Z,69.82
2019-02-21T04:18:28.273Z,70.00
2019-02-21T04:20:59.003Z,70.12
2019-02-21T04:23:29.442Z,70.21
2019-02-21T04:26:00.573Z,70.18
2019-02-21T04:28:31.647Z,70.07
2019-02-21T04:31:03.186Z,69.96
2019-02-21T04:33:34.607Z,69.68
2019-02-21T04:36:05.592Z,69.41
2019-02-21T04:38:36.375Z,69.20
2019-02-21T04:41:08.388Z,69.09
2019-02-21T04:43:39.175Z,69.10
2019-02-21T04:46:09.886Z,69.14
2019-02-21T04:48:40.808Z,69.47
2019-02-21T04:51:12.737Z,69.32
2019-02-21T04:53:43.394Z,69.27
2019-02-21T04:56:14.824Z,69.40
2019-02-21T04:58:45.237Z,69.48
2019-02-21T05:01:17.817Z,70.89
2019-02-21T05:03:48.970Z,71.80
2019-02-21T05:06:19.979Z,72.24
2019-02-21T05:08:50.560Z,72.58
2019-02-21T05:11:21.555Z,72.82
2019-02-21T05:13:53.953Z,73.04
2019-02-21T05:16:24.595Z,73.06
2019-02-21T05:18:55.281Z,73.30
2019-02-21T05:21:26.016Z,73.14
2019-02-21T05:23:56.846Z,73.18
2019-02-21T05:26:32.125Z,73.13
2019-02-21T05:29:03.591Z,73.21
2019-02-21T05:32:11.195Z,73.28
2019-02-21T05:34:49.373Z,73.21
2019-02-21T05:37:39.249Z,73.78
2019-02-21T05:40:31.892Z,73.88
2019-02-21T05:43:13.432Z,73.42
2019-02-21T05:46:18.547Z,73.26
2019-02-21T05:49:17.177Z,73.45
2019-02-21T05:51:57.126Z,74.01
2019-02-21T05:54:32.239Z,73.07
2019-02-21T05:57:16.807Z,73.10
2019-02-21T06:00:09.309Z,73.36
2019-02-21T06:02:57.624Z,73.75
2019-02-21T06:05:34.447Z,73.68
2019-02-21T06:08:31.121Z,73.32
2019-02-21T06:11:20.037Z,73.36
2019-02-21T06:14:08.945Z,73.41
2019-02-21T06:16:57.806Z,73.38
2019-02-21T06:19:59.272Z,73.62
2019-02-21T06:22:57.944Z,73.35
2019-02-21T06:25:50.905Z,73.38
2019-02-21T06:28:23.752Z,73.45
2019-02-21T06:31:01.608Z,73.26
2019-02-21T06:33:34.167Z,73.07
2019-02-21T06:36:05.699Z,73.00
2019-02-21T06:38:36.269Z,73.02
2019-02-21T06:41:08.048Z,73.04
2019-02-21T06:43:38.858Z,73.12
2019-02-21T06:46:09.304Z,73.15
2019-02-21T06:48:40.308Z,73.02
2019-02-21T06:51:12.784Z,73.10
2019-02-21T06:53:43.479Z,72.93
2019-02-21T06:56:14.409Z,73.08
2019-02-21T06:58:47.851Z,73.06
2019-02-21T07:01:28.192Z,72.95
2019-02-21T07:03:52.858Z,73.07
2019-02-21T07:06:31.618Z,72.98
2019-02-21T07:08:55.858Z,72.87
2019-02-21T07:11:26.277Z,72.83
2019-02-21T07:13:57.484Z,72.82
2019-02-21T07:16:28.395Z,72.59
2019-02-21T07:18:58.937Z,72.42
2019-02-21T07:21:29.326Z,72.25
2019-02-21T07:24:00.075Z,71.82
2019-02-21T07:26:30.486Z,71.78
2019-02-21T07:29:01.255Z,71.51
2019-02-21T07:31:32.623Z,71.18
2019-02-21T07:34:03.435Z,71.25
2019-02-21T07:36:35.081Z,71.11
2019-02-21T07:39:17.015Z,70.68
2019-02-21T07:41:41.675Z,70.35
2019-02-21T07:44:12.668Z,70.50
2019-02-21T07:46:42.998Z,70.35
2019-02-21T07:49:13.777Z,69.96
2019-02-21T07:51:45.888Z,70.07
2019-02-21T07:54:17.137Z,70.24
2019-02-21T07:56:48.845Z,70.32
2019-02-21T07:59:19.376Z,70.03
2019-02-21T08:01:51.761Z,69.80
2019-02-21T08:04:22.244Z,69.83
2019-02-21T08:06:55.564Z,69.87
2019-02-21T08:09:28.079Z,69.65
2019-02-21T08:11:59.561Z,69.62
2019-02-21T08:14:30.343Z,69.60
2019-02-21T08:17:01.714Z,69.33
2019-02-21T08:19:32.110Z,69.54
2019-02-21T08:22:02.986Z,69.19
2019-02-21T08:24:33.608Z,69.26
2019-02-21T08:27:04.530Z,68.94
2019-02-21T08:29:35.664Z,68.76
2019-02-21T08:32:06.144Z,68.55
2019-02-21T08:34:40.975Z,68.15
2019-02-21T08:37:11.685Z,67.39
2019-02-21T08:39:43.209Z,67.84
2019-02-21T08:42:15.274Z,67.54
2019-02-21T08:44:45.675Z,67.52
2019-02-21T08:47:17.416Z,66.64
2019-02-21T08:49:48.018Z,66.36
2019-02-21T08:52:18.847Z,66.47
2019-02-21T08:54:59.893Z,66.40
2019-02-21T08:57:24.029Z,66.50
2019-02-21T08:59:54.491Z,65.99
2019-02-21T09:02:26.202Z,65.98
2019-02-21T09:04:56.826Z,65.11
2019-02-21T09:07:27.409Z,65.34
2019-02-21T09:09:58.220Z,65.00
2019-02-21T09:12:28.783Z,64.83
2019-02-21T09:15:00.589Z,64.41
2019-02-21T09:17:32.183Z,64.73
2019-02-21T09:20:03.821Z,64.23
2019-02-21T09:22:34.174Z,64.40
2019-02-21T09:25:06.720Z,63.89
2019-02-21T09:27:37.829Z,62.99
2019-02-21T09:30:12.524Z,62.62
2019-02-21T09:32:44.863Z,62.78
2019-02-21T09:35:15.505Z,62.87
2019-02-21T09:37:46.203Z,61.81
2019-02-21T09:40:17.359Z,61.16
2019-02-21T09:42:48.389Z,62.44
2019-02-21T09:45:19.617Z,62.22
2019-02-21T09:47:50.416Z,62.25
2019-02-21T09:50:22.245Z,61.99
2019-02-21T09:52:53.977Z,62.65
2019-02-21T09:55:25.139Z,62.12
2019-02-21T09:57:55.865Z,61.81
2019-02-21T10:00:26.670Z,62.32
2019-02-21T10:02:57.105Z,62.34
2019-02-21T10:05:27.737Z,61.81
2019-02-21T10:07:59.310Z,61.45
2019-02-21T10:10:29.883Z,61.49
2019-02-21T10:13:01.839Z,60.99
2019-02-21T10:15:32.888Z,61.13
2019-02-21T10:18:03.228Z,61.39
2019-02-21T10:20:33.628Z,60.92
2019-02-21T10:23:05.915Z,61.20
2019-02-21T10:25:37.084Z,60.76
2019-02-21T10:28:07.588Z,61.08
2019-02-21T10:30:39.604Z,60.33
2019-02-21T10:33:11.313Z,60.24
2019-02-21T10:35:42.967Z,60.04
2019-02-21T10:38:14.601Z,60.11
2019-02-21T10:40:46.534Z,60.31
2019-02-21T10:43:16.964Z,59.15
2019-02-21T10:45:48.322Z,59.49
2019-02-21T10:48:19.119Z,59.63
2019-02-21T10:50:49.665Z,59.37
2019-02-21T10:53:20.334Z,59.59
2019-02-21T10:55:50.825Z,59.85
2019-02-21T10:58:21.443Z,59.61
2019-02-21T11:00:52.891Z,59.03
2019-02-21T11:03:23.236Z,59.26
2019-02-21T11:05:53.648Z,59.39
2019-02-21T11:08:26.019Z,59.05
2019-02-21T11:10:56.782Z,58.34
2019-02-21T11:13:28.739Z,58.67
2019-02-21T11:15:59.417Z,58.65
2019-02-21T11:18:30.868Z,58.42
2019-02-21T11:21:01.307Z,58.94
2019-02-21T11:23:31.823Z,58.15
2019-02-21T11:26:03.918Z,58.16
2019-02-21T11:28:34.439Z,58.74
2019-02-21T11:31:05.122Z,57.23
2019-02-21T11:33:35.746Z,57.24
2019-02-21T11:36:06.276Z,57.09
2019-02-21T11:38:36.891Z,56.20
2019-02-21T11:41:07.821Z,55.90
2019-02-21T11:43:38.526Z,55.46
2019-02-21T11:46:09.150Z,55.89
2019-02-21T11:48:39.662Z,54.82
2019-02-21T11:51:10.440Z,55.29
2019-02-21T11:53:40.902Z,55.61
2019-02-21T11:56:11.483Z,55.86
2019-02-21T11:58:42.073Z,55.69
2019-02-21T12:01:13.150Z,55.77
2019-02-21T12:03:44.773Z,56.12
2019-02-21T12:06:16.706Z,55.43
2019-02-21T12:08:47.442Z,55.77
2019-02-21T12:11:17.946Z,55.43
2019-02-21T12:13:48.635Z,55.61
2019-02-21T12:16:19.283Z,56.23
2019-02-21T12:18:51.102Z,56.37
2019-02-21T12:21:23.586Z,56.24
2019-02-21T12:23:54.091Z,55.60
2019-02-21T12:26:24.474Z,55.99
2019-02-21T12:28:55.801Z,55.63
2019-02-21T12:31:26.387Z,56.04
2019-02-21T12:33:56.837Z,56.03
2019-02-21T12:36:27.961Z,56.09
2019-02-21T12:38:58.619Z,56.35
2019-02-21T12:41:29.164Z,56.48
2019-02-21T12:43:59.852Z,56.83
2019-02-21T12:46:32.458Z,56.71
2019-02-21T12:49:02.946Z,56.63
2019-02-21T12:51:33.752Z,56.89
2019-02-21T12:54:04.553Z,57.06
2019-02-21T12:56:35.263Z,56.91
2019-02-21T12:59:05.704Z,57.26
2019-02-21T13:01:37.183Z,56.88
2019-02-21T13:04:08.226Z,56.81
2019-02-21T13:06:40.140Z,56.78
2019-02-21T13:09:10.989Z,56.96
2019-02-21T13:11:42.179Z,57.29
2019-02-21T13:14:14.139Z,56.87
2019-02-21T13:16:46.264Z,57.01
2019-02-21T13:19:17.034Z,56.98
2019-02-21T13:21:47.886Z,56.98
2019-02-21T13:24:18.214Z,56.76
2019-02-21T13:26:49.212Z,56.73
2019-02-21T13:29:21.486Z,56.85
2019-02-21T13:31:52.321Z,56.95
2019-02-21T13:34:23.105Z,56.75
2019-02-21T13:36:53.775Z,56.78
2019-02-21T13:39:24.379Z,56.56
2019-02-21T13:41:58.194Z,56.63
2019-02-21T13:44:28.677Z,56.40
2019-02-21T13:46:59.238Z,56.47
2019-02-21T13:49:29.780Z,56.71
2019-02-21T13:52:00.392Z,56.75
2019-02-21T13:54:31.045Z,56.93
2019-02-21T13:57:01.786Z,57.10
2019-02-21T13:59:34.917Z,56.85
2019-02-21T14:02:06.047Z,56.96
2019-02-21T14:04:37.957Z,57.18
2019-02-21T14:07:08.722Z,57.42
2019-02-21T14:09:39.619Z,57.72
2019-02-21T14:12:11.611Z,57.97
2019-02-21T14:14:44.121Z,58.03
2019-02-21T14:17:15.592Z,58.37
2019-02-21T14:19:47.385Z,59.67
2019-02-21T14:22:17.957Z,60.43
2019-02-21T14:24:50.877Z,60.28
2019-02-21T14:27:21.452Z,60.56
2019-02-21T14:29:52.106Z,60.62
2019-02-21T14:32:23.442Z,61.02
2019-02-21T14:34:54.017Z,61.72
2019-02-21T14:37:25.191Z,62.10
2019-02-21T14:39:55.863Z,62.76
2019-02-21T14:42:27.107Z,63.54
2019-02-21T14:44:57.861Z,64.14
2019-02-21T14:47:28.515Z,65.07
2019-02-21T14:49:59.828Z,66.18
2019-02-21T14:52:30.276Z,66.41
2019-02-21T14:55:01.863Z,66.39
2019-02-21T14:57:40.568Z,66.92
2019-02-21T15:00:05.341Z,67.71
2019-02-21T15:02:36.195Z,68.43
2019-02-21T15:05:09.930Z,69.19
2019-02-21T15:07:41.206Z,70.12
2019-02-21T15:10:12.097Z,70.68
2019-02-21T15:12:42.529Z,70.46
2019-02-21T15:15:14.220Z,70.17
2019-02-21T15:17:44.642Z,70.57
2019-02-21T15:20:16.053Z,70.80
2019-02-21T15:22:48.621Z,71.11
2019-02-21T15:25:19.295Z,71.30
2019-02-21T15:27:50.067Z,71.79
2019-02-21T15:30:22.205Z,72.15
2019-02-21T15:32:52.977Z,72.89
2019-02-21T15:35:23.901Z,73.67
2019-02-21T15:37:54.464Z,74.27
2019-02-21T15:40:25.197Z,73.87
2019-02-21T15:42:55.816Z,74.15
2019-02-21T15:45:26.825Z,74.21
2019-02-21T15:47:58.291Z,74.38
2019-02-21T15:50:28.801Z,75.74
2019-02-21T15:52:59.263Z,76.90
2019-02-21T15:55:32.029Z,78.19
2019-02-21T15:58:04.292Z,79.21
2019-02-21T16:00:34.503Z,78.79
2019-02-21T16:03:06.750Z,78.85
2019-02-21T16:05:37.770Z,78.66
2019-02-21T16:08:08.266Z,78.67
2019-02-21T16:10:39.922Z,78.79
2019-02-21T16:13:10.889Z,79.11
2019-02-21T16:15:41.384Z,79.84
2019-02-21T16:18:13.886Z,80.05
2019-02-21T16:20:44.080Z,81.07
2019-02-21T16:23:14.458Z,81.46
2019-02-21T16:25:44.860Z,81.56
2019-02-21T16:28:15.430Z,82.35
2019-02-21T16:30:45.859Z,82.48
2019-02-21T16:33:16.292Z,82.80
2019-02-21T16:35:48.355Z,82.09
2019-02-21T16:38:18.850Z,82.15
2019-02-21T16:40:49.353Z,82.88
2019-02-21T16:43:20.882Z,83.37
2019-02-21T16:45:53.823Z,83.69
2019-02-21T16:48:24.968Z,83.87
2019-02-21T16:50:55.765Z,83.96
2019-02-21T16:53:26.424Z,84.17
2019-02-21T16:55:57.189Z,84.66
2019-02-21T16:58:27.775Z,84.85
2019-02-21T17:00:58.435Z,85.38
2019-02-21T17:03:28.905Z,85.37
2019-02-21T17:05:59.586Z,85.56
2019-02-21T17:08:31.341Z,85.75
2019-02-21T17:11:01.735Z,86.12
2019-02-21T17:13:32.207Z,86.14
2019-02-21T17:16:02.849Z,86.17
2019-02-21T17:18:33.395Z,86.58
2019-02-21T17:21:04.833Z,87.36
2019-02-21T17:23:35.671Z,87.70
2019-02-21T17:26:06.216Z,88.80
2019-02-21T17:28:36.686Z,89.11
2019-02-21T17:31:07.215Z,89.74
2019-02-21T17:33:37.785Z,89.82
2019-02-21T17:36:08.297Z,89.32
2019-02-21T17:38:38.793Z,89.96
2019-02-21T17:41:09.604Z,90.33
2019-02-21T17:43:40.117Z,90.11
2019-02-21T17:46:10.516Z,90.04
2019-02-21T17:48:41.267Z,90.61
2019-02-21T17:51:11.677Z,90.74
2019-02-21T17:53:42.073Z,90.78
2019-02-21T17:56:12.411Z,91.29
2019-02-21T17:58:42.892Z,91.34
2019-02-21T18:01:13.326Z,90.77
2019-02-21T18:03:43.680Z,90.80
2019-02-21T18:06:14.124Z,90.68
2019-02-21T18:08:44.604Z,90.95
2019-02-21T18:11:15.110Z,90.53
2019-02-21T18:13:45.621Z,90.66
2019-02-21T18:16:16.037Z,90.47
2019-02-21T18:18:46.653Z,90.56
2019-02-21T18:21:17.147Z,90.75
2019-02-21T18:23:47.899Z,91.20
2019-02-21T18:26:19.646Z,91.27
2019-02-21T18:28:50.306Z,91.43
2019-02-21T18:31:25.314Z,91.70
2019-02-21T18:33:55.817Z,92.27
2019-02-21T18:36:26.409Z,92.32
2019-02-21T18:38:57.007Z,92.48
2019-02-21T18:41:27.513Z,92.12
2019-02-21T18:43:58.250Z,92.40
2019-02-21T18:46:28.662Z,92.46
2019-02-21T18:49:02.781Z,91.67
2019-02-21T18:51:33.278Z,91.75
2019-02-21T18:54:03.711Z,92.19
2019-02-21T18:56:34.301Z,91.88
2019-02-21T18:59:04.729Z,92.17
2019-02-21T19:01:35.356Z,91.84
2019-02-21T19:04:06.688Z,92.09
2019-02-21T19:06:37.540Z,91.89
2019-02-21T19:09:09.500Z,91.96
2019-02-21T19:11:40.232Z,92.64
2019-02-21T19:14:10.667Z,92.91
2019-02-21T19:16:41.807Z,93.29
2019-02-21T19:19:12.195Z,92.88
2019-02-21T19:21:43.353Z,92.92
2019-02-21T19:24:13.971Z,92.58
2019-02-21T19:26:44.448Z,92.33
2019-02-21T19:29:16.632Z,92.16
2019-02-21T19:31:47.242Z,92.50
2019-02-21T19:34:18.025Z,92.13
2019-02-21T19:36:48.535Z,92.39
2019-02-21T19:39:19.084Z,92.76
2019-02-21T19:41:49.918Z,93.24
2019-02-21T19:44:20.562Z,93.28
2019-02-21T19:46:51.215Z,93.59
2019-02-21T19:49:21.986Z,93.90
2019-02-21T19:51:52.644Z,94.27
2019-02-21T19:54:23.270Z,94.73
2019-02-21T19:56:54.118Z,94.88
2019-02-21T19:59:25.163Z,94.96
2019-02-21T20:01:57.046Z,94.91
2019-02-21T20:04:29.032Z,95.22
2019-02-21T20:07:01.064Z,95.69
2019-02-21T20:09:31.550Z,96.08
2019-02-21T20:12:02.534Z,96.29
2019-02-21T20:14:33.008Z,96.47
2019-02-21T20:17:03.645Z,96.51
2019-02-21T20:19:34.067Z,96.27
2019-02-21T20:22:04.469Z,96.29
2019-02-21T20:24:34.877Z,96.27
2019-02-21T20:27:05.647Z,96.28
2019-02-21T20:29:36.046Z,96.22
2019-02-21T20:32:07.298Z,96.43
2019-02-21T20:34:37.636Z,96.41
2019-02-21T20:37:08.301Z,96.55
2019-02-21T20:39:39.101Z,96.77
2019-02-21T20:42:09.999Z,97.06
2019-02-21T20:44:40.566Z,97.46
2019-02-21T20:47:11.092Z,97.60
2019-02-21T20:49:41.931Z,97.82
2019-02-21T20:52:12.515Z,98.04
2019-02-21T20:54:43.134Z,98.35
2019-02-21T20:57:14.229Z,98.54
2019-02-21T20:59:44.557Z,98.84
2019-02-21T21:02:15.390Z,99.10
2019-02-21T21:04:47.153Z,99.30
2019-02-21T21:07:24.813Z,99.41
2019-02-21T21:09:49.746Z,99.57
2019-02-21T21:12:20.190Z,99.67
2019-02-21T21:14:50.653Z,99.72
2019-02-21T21:17:21.131Z,99.74
2019-02-21T21:19:51.479Z,99.74
2019-02-21T21:22:21.956Z,99.75
2019-02-21T21:24:52.406Z,99.77
2019-02-21T21:27:22.906Z,99.83
2019-02-21T21:29:53.406Z,99.81
2019-02-21T21:32:23.945Z,99.84
2019-02-21T21:34:55.999Z,99.82
2019-02-21T21:37:27.055Z,99.83
2019-02-21T21:39:58.943Z,99.82
2019-02-21T21:42:29.342Z,99.85
2019-02-21T21:45:01.502Z,99.90
2019-02-21T21:47:32.410Z,99.90
2019-02-21T21:50:03.121Z,99.95
2019-02-21T21:52:33.867Z,99.90
2019-02-21T21:55:05.012Z,99.83
2019-02-21T21:57:35.470Z,99.78
2019-02-21T22:00:07.237Z,99.72
2019-02-21T22:02:39.364Z,99.68
2019-02-21T22:05:10.023Z,99.63
2019-02-21T22:07:40.873Z,99.71
2019-02-21T22:10:12.263Z,99.65
2019-02-21T22:12:43.383Z,99.66
2019-02-21T22:15:14.373Z,99.55
2019-02-21T22:17:45.222Z,99.54
2019-02-21T22:20:16.202Z,99.44
2019-02-21T22:22:47.198Z,99.40
2019-02-21T22:25:18.375Z,99.46
2019-02-21T22:27:49.278Z,99.51
2019-02-21T22:30:20.417Z,99.66
2019-02-21T22:32:51.411Z,99.62
2019-02-21T22:35:22.407Z,99.62
2019-02-21T22:37:53.455Z,99.57
2019-02-21T22:40:24.542Z,99.46
2019-02-21T22:42:55.712Z,99.49
2019-02-21T22:45:27.012Z,99.58
2019-02-21T22:47:58.362Z,99.60
2019-02-21T22:50:29.332Z,99.61
2019-02-21T22:53:00.410Z,99.95
2019-02-21T22:55:31.483Z,99.95
2019-02-21T22:58:02.524Z,99.68
2019-02-21T23:01:00.267Z,99.57
2019-02-21T23:03:56.249Z,99.45
2019-02-21T23:06:35.111Z,99.38
2019-02-21T23:09:13.494Z,99.35
2019-02-21T23:11:44.968Z,99.31
2019-02-21T23:14:16.674Z,99.29
2019-02-21T23:16:48.420Z,99.18
2019-02-21T23:19:19.466Z,99.13
2019-02-21T23:21:50.558Z,99.13
2019-02-21T23:24:21.597Z,99.12
2019-02-21T23:26:53.613Z,99.04
2019-02-21T23:29:24.808Z,99.09
2019-02-21T23:31:55.981Z,99.09
2019-02-21T23:34:34.566Z,98.79
2019-02-21T23:37:06.240Z,98.71
2019-02-21T23:39:38.595Z,98.49
2019-02-21T23:42:09.551Z,98.42
2019-02-21T23:44:40.991Z,98.32
2019-02-21T23:47:11.998Z,98.29
2019-02-21T23:49:42.953Z,98.24
2019-02-21T23:52:14.172Z,98.14
2019-02-21T23:54:45.317Z,98.27
2019-02-21T23:57:16.314Z,98.44
2019-02-21T23:59:47.824Z,98.63
